Time;durP1;ratioP1;P1;durP2;ratioP2;P2;SDS_P1;SDS_P2;PMS_P1;PMS_P2;Temp;Humidity;BMP_temperature;BMP_pressure;BME280_temperature;BME280_humidity;BME280_pressure;Samples;Min_cycle;Max_cycle;Signal;HPM_P1;HPM_P2
2022/05/01 00:02:06;;;;;;;22.88;4.30;;;38.40;10.90;;;;;;5074959;28;20076;-66
2022/05/01 00:04:33;;;;;;;37.03;5.13;;;38.40;10.90;;;;;;5055996;28;20487;-66
2022/05/01 00:06:59;;;;;;;24.77;4.38;;;38.40;11.00;;;;;;5055874;28;20064;-64
2022/05/01 00:09:26;;;;;;;44.63;6.03;;;38.40;11.50;;;;;;5072814;28;20453;-66
2022/05/01 00:11:53;;;;;;;33.17;5.00;;;38.30;11.20;;;;;;5053916;28;20021;-66
2022/05/01 00:14:20;;;;;;;65.13;8.73;;;38.30;11.10;;;;;;5060506;28;20032;-67
2022/05/01 00:16:46;;;;;;;25.08;4.80;;;38.30;11.70;;;;;;5044007;28;20025;-65
2022/05/01 00:19:13;;;;;;;128.10;11.93;;;38.10;11.10;;;;;;5035367;28;20029;-70
2022/05/01 00:21:39;;;;;;;27.25;4.57;;;38.00;11.60;;;;;;5035472;28;20509;-68
2022/05/01 00:24:07;;;;;;;26.48;4.63;;;37.80;11.10;;;;;;5036382;28;20044;-65
2022/05/01 00:26:34;;;;;;;24.88;4.43;;;37.80;11.30;;;;;;5054203;28;20025;-65
2022/05/01 00:29:06;;;;;;;25.70;4.43;;;37.80;11.40;;;;;;5039259;28;20047;-69
2022/05/01 00:31:33;;;;;;;24.92;4.45;;;37.70;11.70;;;;;;5033694;28;20033;-67
2022/05/01 00:36:44;;;;;;;17.58;4.38;;;37.60;11.20;;;;;;5054622;28;20075;-67
2022/05/01 00:39:11;;;;;;;25.45;5.13;;;37.40;11.70;;;;;;5036347;28;20072;-66
2022/05/01 00:41:39;;;;;;;25.20;4.57;;;37.30;11.30;;;;;;5035298;28;20055;-66
2022/05/01 00:44:09;;;;;;;32.17;4.60;;;37.30;11.90;;;;;;5037324;28;20459;-68
2022/05/01 00:46:42;;;;;;;27.65;4.35;;;37.30;11.90;;;;;;5038782;28;20055;-66
2022/05/01 00:49:11;;;;;;;29.05;4.75;;;37.10;11.50;;;;;;5055845;28;20017;-66
2022/05/01 00:51:46;;;;;;;28.88;5.07;;;37.10;11.50;;;;;;5037941;28;20025;-66
2022/05/01 00:54:15;;;;;;;21.27;4.40;;;37.20;22.20;;;;;;5022866;28;20020;-69
2022/05/01 00:56:43;;;;;;;28.77;4.53;;;36.80;19.50;;;;;;5035213;28;20029;-66
2022/05/01 00:59:10;;;;;;;24.63;3.97;;;36.50;23.60;;;;;;5037272;28;20059;-65
2022/05/01 01:01:40;;;;;;;29.55;4.78;;;36.90;21.90;;;;;;5035987;28;20036;-66
2022/05/01 01:04:06;;;;;;;21.02;4.03;;;36.70;11.50;;;;;;5038565;28;20024;-67
2022/05/01 01:06:34;;;;;;;26.85;3.92;;;36.60;11.60;;;;;;5037761;28;20028;-66
2022/05/01 01:09:01;;;;;;;30.13;4.65;;;36.60;11.50;;;;;;5036495;28;20078;-68
2022/05/01 01:11:27;;;;;;;26.92;4.70;;;36.50;21.60;;;;;;5050226;28;20032;-66
2022/05/01 01:13:54;;;;;;;19.70;3.53;;;36.10;21.80;;;;;;5047472;28;20039;-67
2022/05/01 01:16:21;;;;;;;25.77;4.57;;;36.10;11.40;;;;;;5054638;28;20024;-66
2022/05/01 01:18:48;;;;;;;40.42;4.57;;;36.20;17.70;;;;;;5056622;28;20406;-66
2022/05/01 01:21:14;;;;;;;23.13;5.10;;;35.90;11.70;;;;;;5054282;28;20030;-69
2022/05/01 01:23:42;;;;;;;22.40;4.85;;;35.90;11.80;;;;;;5069525;28;20036;-67
2022/05/01 01:26:11;;;;;;;25.67;4.70;;;35.80;11.80;;;;;;5054497;28;20099;-67
2022/05/01 01:28:40;;;;;;;25.17;4.25;;;35.70;11.90;;;;;;5076086;28;20119;-66
2022/05/01 01:34:01;;;;;;;27.67;4.57;;;35.50;11.60;;;;;;5070066;28;20043;-67
2022/05/01 01:36:28;;;;;;;27.83;4.70;;;35.40;11.70;;;;;;5058338;28;20028;-65
2022/05/01 01:38:56;;;;;;;18.55;3.33;;;35.40;11.90;;;;;;5076678;28;20028;-65
2022/05/01 01:41:25;;;;;;;17.40;3.72;;;35.30;11.50;;;;;;5078604;28;20098;-68
2022/05/01 01:43:52;;;;;;;29.58;4.65;;;35.10;11.90;;;;;;5078725;28;20015;-65
2022/05/01 01:46:19;;;;;;;27.15;4.32;;;35.00;12.00;;;;;;5054764;28;20028;-66
2022/05/01 01:48:46;;;;;;;38.85;5.15;;;34.90;12.10;;;;;;5074990;28;20117;-66
2022/05/01 01:51:13;;;;;;;30.38;4.90;;;34.80;12.20;;;;;;5055058;28;20031;-65
2022/05/01 01:53:41;;;;;;;37.17;4.78;;;34.80;12.40;;;;;;5054650;28;20031;-66
2022/05/01 01:56:08;;;;;;;44.22;5.18;;;34.60;12.60;;;;;;5055528;28;20024;-65
2022/05/01 01:58:35;;;;;;;30.27;5.35;;;34.50;12.90;;;;;;5076089;28;20033;-65
2022/05/01 02:01:04;;;;;;;36.40;4.97;;;34.50;13.20;;;;;;5074054;28;20028;-66
2022/05/01 02:03:31;;;;;;;31.73;5.78;;;34.40;13.40;;;;;;5055081;28;20047;-66
2022/05/01 02:05:57;;;;;;;38.03;6.63;;;34.20;13.50;;;;;;5054816;28;20016;-67
2022/05/01 02:08:24;;;;;;;35.25;6.00;;;34.10;13.60;;;;;;5054116;28;20024;-65
2022/05/01 02:10:50;;;;;;;37.08;5.55;;;34.00;13.80;;;;;;5056765;28;20526;-68
2022/05/01 02:13:17;;;;;;;39.97;5.90;;;34.00;14.00;;;;;;5048647;28;20080;-67
2022/05/01 02:15:44;;;;;;;35.53;5.78;;;33.80;13.70;;;;;;5035258;28;20394;-66
2022/05/01 02:18:11;;;;;;;38.53;4.75;;;33.70;13.50;;;;;;5036864;28;20044;-67
2022/05/01 02:23:26;;;;;;;47.13;6.45;;;33.50;13.00;;;;;;5052980;28;20948;-68
2022/05/01 02:25:52;;;;;;;38.65;6.22;;;33.40;12.90;;;;;;5032552;28;20435;-65
2022/05/01 02:28:19;;;;;;;47.95;6.57;;;33.30;13.00;;;;;;5052521;28;20491;-66
2022/05/01 02:30:46;;;;;;;37.50;6.35;;;33.10;22.30;;;;;;5035486;28;20029;-66
2022/05/01 02:33:13;;;;;;;31.38;6.50;;;33.10;13.20;;;;;;5035656;28;20024;-66
2022/05/01 02:35:39;;;;;;;35.00;5.80;;;33.00;13.30;;;;;;5037547;28;20033;-66
2022/05/01 02:38:06;;;;;;;40.10;5.40;;;32.90;13.40;;;;;;5036838;28;20037;-66
2022/05/01 02:40:33;;;;;;;36.67;5.10;;;32.80;13.70;;;;;;5037356;28;20033;-68
2022/05/01 02:43:00;;;;;;;30.27;5.32;;;32.70;14.00;;;;;;5038680;28;20033;-66
2022/05/01 02:45:28;;;;;;;37.92;6.22;;;32.50;14.30;;;;;;5039497;28;20025;-66
2022/05/01 02:47:55;;;;;;;31.23;5.93;;;32.40;14.50;;;;;;5038343;28;20549;-67
2022/05/01 02:50:22;;;;;;;35.33;6.20;;;32.30;14.40;;;;;;5037366;28;20024;-66
2022/05/01 02:52:52;;;;;;;36.17;5.97;;;32.20;14.30;;;;;;5057274;28;20059;-69
2022/05/01 02:55:19;;;;;;;31.77;5.75;;;32.20;14.30;;;;;;5037331;28;20088;-67
2022/05/01 02:57:46;;;;;;;27.92;6.03;;;32.10;14.80;;;;;;5020522;28;20416;-66
2022/05/01 03:00:19;;;;;;;34.55;5.43;;;32.00;14.90;;;;;;5057049;28;20421;-67
2022/05/01 03:02:46;;;;;;;33.92;5.63;;;31.80;14.90;;;;;;5056630;28;20117;-67
2022/05/01 03:05:14;;;;;;;28.35;5.57;;;31.70;14.90;;;;;;5056570;28;20035;-66
2022/05/01 03:07:40;;;;;;;29.35;5.95;;;31.50;15.10;;;;;;5038746;28;20028;-68
2022/05/01 03:10:08;;;;;;;27.98;6.03;;;31.50;15.50;;;;;;5039100;28;20032;-66
2022/05/01 03:12:37;;;;;;;33.38;5.90;;;31.30;15.70;;;;;;5056512;28;20047;-69
2022/05/01 03:15:06;;;;;;;29.00;5.80;;;31.10;15.70;;;;;;5077255;28;20028;-65
2022/05/01 03:23:04;;;;;;;25.48;5.55;;;31.10;16.00;;;;;;5077941;28;20073;-66
2022/05/01 03:25:30;;;;;;;24.00;6.22;;;31.10;16.10;;;;;;5056786;28;20056;-67
2022/05/01 03:27:57;;;;;;;32.92;8.13;;;31.00;16.10;;;;;;5055719;28;20059;-67
2022/05/01 03:30:23;;;;;;;27.60;7.28;;;31.10;16.00;;;;;;5074114;28;20051;-66
2022/05/01 03:32:50;;;;;;;31.50;5.15;;;31.00;16.10;;;;;;5073591;28;20517;-68
2022/05/01 03:35:17;;;;;;;29.40;7.00;;;30.90;16.00;;;;;;5055603;28;20041;-66
2022/05/01 03:37:44;;;;;;;28.63;6.72;;;30.90;16.00;;;;;;5075066;28;20029;-67
2022/05/01 03:40:15;;;;;;;22.35;7.18;;;30.90;15.80;;;;;;5064169;28;20049;-68
2022/05/01 03:42:42;;;;;;;28.25;5.85;;;30.90;15.60;;;;;;5056256;28;20039;-67
2022/05/01 03:45:09;;;;;;;37.22;6.47;;;30.80;15.40;;;;;;5058451;28;20130;-66
2022/05/01 03:47:37;;;;;;;19.75;5.38;;;30.80;15.50;;;;;;5056833;28;20117;-69
2022/05/01 03:50:05;;;;;;;48.15;6.80;;;30.70;15.50;;;;;;5059170;28;21041;-68
2022/05/01 03:52:33;;;;;;;20.17;5.32;;;30.70;15.70;;;;;;5059259;28;20039;-67
2022/05/01 03:54:59;;;;;;;16.38;4.68;;;30.60;15.90;;;;;;5075931;28;20123;-67
2022/05/01 03:57:26;;;;;;;22.42;5.68;;;30.60;15.90;;;;;;5060005;28;20054;-70
2022/05/01 03:59:52;;;;;;;17.25;4.95;;;30.50;16.00;;;;;;5058484;28;20053;-67
2022/05/01 04:02:19;;;;;;;19.50;4.78;;;30.40;16.10;;;;;;5056945;28;20045;-67
2022/05/01 04:04:47;;;;;;;18.55;5.70;;;30.30;16.10;;;;;;5075342;28;20059;-67
2022/05/01 04:07:14;;;;;;;30.33;6.55;;;30.30;16.20;;;;;;5077273;28;20084;-65
2022/05/01 04:09:41;;;;;;;19.67;5.47;;;30.30;16.40;;;;;;5042581;28;20516;-69
2022/05/01 04:12:07;;;;;;;13.60;4.93;;;30.20;16.60;;;;;;5040787;28;20083;-65
2022/05/01 04:14:34;;;;;;;22.05;4.85;;;30.00;16.80;;;;;;5045596;28;20143;-68
2022/05/01 04:17:01;;;;;;;21.88;5.10;;;30.00;16.70;;;;;;5057895;28;20048;-69
2022/05/01 04:19:30;;;;;;;26.52;5.20;;;29.90;16.70;;;;;;5068664;28;20409;-66
2022/05/01 04:21:57;;;;;;;18.50;5.20;;;29.90;16.80;;;;;;5058179;28;20047;-66
2022/05/01 04:24:24;;;;;;;18.75;5.47;;;29.80;16.90;;;;;;5059553;28;20081;-66
2022/05/01 04:26:50;;;;;;;23.48;6.57;;;29.70;16.80;;;;;;5075768;28;20215;-66
2022/05/01 04:32:01;;;;;;;15.25;5.93;;;29.60;17.10;;;;;;5074982;28;20056;-66
2022/05/01 04:34:28;;;;;;;20.92;4.70;;;29.50;17.30;;;;;;5057243;28;20141;-70
2022/05/01 04:36:54;;;;;;;22.17;6.20;;;29.40;17.60;;;;;;5057939;28;20501;-66
2022/05/01 04:39:20;;;;;;;16.67;4.88;;;29.30;17.60;;;;;;5057705;28;20051;-67
2022/05/01 04:41:47;;;;;;;16.45;4.60;;;29.20;17.60;;;;;;5059002;28;20146;-69
2022/05/01 04:44:13;;;;;;;14.15;4.20;;;29.10;17.80;;;;;;5058111;28;20059;-66
2022/05/01 04:46:40;;;;;;;19.27;4.63;;;29.00;18.10;;;;;;5060008;28;20072;-67
2022/05/01 04:49:06;;;;;;;25.90;5.35;;;28.90;18.30;;;;;;5057167;28;20141;-67
2022/05/01 04:51:33;;;;;;;27.38;5.10;;;28.70;19.30;;;;;;5058560;28;20044;-68
2022/05/01 04:53:59;;;;;;;22.27;5.47;;;28.30;27.50;;;;;;5073687;28;20064;-67
2022/05/01 04:59:10;;;;;;;25.58;5.80;;;28.40;20.30;;;;;;5074670;28;20046;-67
2022/05/01 05:01:41;;;;;;;16.70;5.70;;;28.30;20.40;;;;;;5072893;28;20060;-68
2022/05/01 05:04:07;;;;;;;23.15;7.03;;;28.70;20.20;;;;;;5074003;28;20039;-68
2022/05/01 05:06:34;;;;;;;20.90;6.30;;;28.10;19.40;;;;;;5056799;28;20065;-68
2022/05/01 05:11:45;;;;;;;16.40;5.95;;;28.10;19.40;;;;;;5073583;28;20072;-70
2022/05/01 05:14:11;;;;;;;21.02;6.63;;;28.00;19.50;;;;;;5053588;28;20084;-68
2022/05/01 05:16:38;;;;;;;18.15;5.72;;;27.90;19.70;;;;;;5052850;28;20074;-69
2022/05/01 05:19:04;;;;;;;20.77;5.38;;;27.80;19.60;;;;;;5055456;28;20548;-67
2022/05/01 05:21:31;;;;;;;22.83;5.70;;;27.80;19.60;;;;;;5057326;28;20520;-69
2022/05/01 05:23:57;;;;;;;18.23;4.93;;;27.70;19.70;;;;;;5057278;28;20119;-68
2022/05/01 05:26:24;;;;;;;24.80;5.40;;;27.60;19.60;;;;;;5055441;28;20134;-65
2022/05/01 05:28:50;;;;;;;21.38;5.22;;;27.50;19.80;;;;;;5056088;28;20061;-65
2022/05/01 05:31:16;;;;;;;21.17;5.85;;;27.50;19.90;;;;;;5054625;28;20084;-66
2022/05/01 05:33:43;;;;;;;23.65;7.35;;;27.50;20.00;;;;;;5054857;28;20062;-66
2022/05/01 05:36:09;;;;;;;28.45;7.95;;;27.30;20.20;;;;;;5056185;28;20080;-66
2022/05/01 05:38:37;;;;;;;21.70;5.88;;;27.30;20.30;;;;;;5056097;28;20106;-69
2022/05/01 05:41:05;;;;;;;31.60;5.90;;;27.30;20.20;;;;;;5053981;28;20088;-66
2022/05/01 05:43:31;;;;;;;26.50;5.97;;;27.20;20.30;;;;;;5055499;28;20550;-69
2022/05/01 05:45:58;;;;;;;24.45;5.80;;;27.20;20.10;;;;;;5072069;28;20069;-67
2022/05/01 05:48:24;;;;;;;25.17;5.80;;;27.10;19.70;;;;;;5071976;28;20130;-65
2022/05/01 05:50:51;;;;;;;18.83;5.85;;;27.00;19.30;;;;;;5053486;28;20108;-65
2022/05/01 05:53:17;;;;;;;16.80;5.68;;;27.10;19.10;;;;;;5053412;28;20171;-66
2022/05/01 05:55:45;;;;;;;22.08;5.50;;;27.10;19.10;;;;;;5057078;28;20069;-68
2022/05/01 05:58:11;;;;;;;25.77;5.55;;;27.10;19.20;;;;;;5054674;28;20062;-66
2022/05/01 06:00:37;;;;;;;22.73;6.00;;;27.10;19.40;;;;;;5051258;28;20096;-69
2022/05/01 06:03:04;;;;;;;32.78;12.02;;;27.10;19.60;;;;;;5056678;28;20550;-68
2022/05/01 06:05:30;;;;;;;21.27;6.85;;;27.10;19.70;;;;;;5056726;28;20077;-67
2022/05/01 06:07:57;;;;;;;20.75;5.22;;;26.70;31.50;;;;;;5071689;28;20064;-66
2022/05/01 06:10:23;;;;;;;33.88;10.45;;;27.00;20.10;;;;;;5057403;28;20146;-64
2022/05/01 06:12:52;;;;;;;24.85;6.18;;;27.00;20.30;;;;;;5065490;28;20143;-65
2022/05/01 06:15:19;;;;;;;19.52;5.00;;;27.10;20.70;;;;;;5069336;28;20545;-65
2022/05/01 06:17:45;;;;;;;18.98;4.97;;;26.90;21.30;;;;;;5035278;28;20104;-67
2022/05/01 06:20:12;;;;;;;23.23;6.97;;;26.80;22.20;;;;;;5042598;28;20069;-69
2022/05/01 06:22:38;;;;;;;19.20;5.38;;;26.70;22.60;;;;;;5040067;28;20082;-64
2022/05/01 06:25:05;;;;;;;21.92;6.53;;;26.70;23.00;;;;;;5047054;28;20066;-64
2022/05/01 06:27:31;;;;;;;18.50;5.07;;;26.60;23.20;;;;;;5053101;28;20175;-64
2022/05/01 06:29:58;;;;;;;19.45;4.82;;;26.50;23.40;;;;;;5050461;28;20463;-68
2022/05/01 06:32:25;;;;;;;13.07;4.15;;;26.50;23.70;;;;;;5051789;28;20060;-69
2022/05/01 06:34:52;;;;;;;20.65;5.53;;;26.40;23.90;;;;;;5046032;28;20071;-63
2022/05/01 06:37:18;;;;;;;16.58;5.10;;;26.30;25.00;;;;;;5035492;28;20100;-66
2022/05/01 06:39:45;;;;;;;16.20;4.93;;;26.10;25.30;;;;;;5066126;28;20114;-65
2022/05/01 06:42:12;;;;;;;17.25;5.63;;;26.00;24.80;;;;;;5038995;28;20165;-65
2022/05/01 06:44:38;;;;;;;23.35;4.65;;;26.00;24.50;;;;;;5040043;28;20071;-67
2022/05/01 06:47:06;;;;;;;27.85;5.45;;;26.00;23.50;;;;;;5065714;28;20166;-65
2022/05/01 06:49:33;;;;;;;20.30;5.60;;;26.10;23.60;;;;;;5067792;28;20195;-68
2022/05/01 06:51:59;;;;;;;38.65;5.25;;;26.10;23.10;;;;;;5040951;28;20139;-66
2022/05/01 06:54:25;;;;;;;24.33;4.63;;;26.20;22.70;;;;;;5040231;28;20070;-69
2022/05/01 06:56:52;;;;;;;24.17;4.97;;;26.30;22.50;;;;;;5040724;28;20104;-67
2022/05/01 06:59:18;;;;;;;22.92;4.85;;;26.30;22.50;;;;;;5067037;28;20071;-69
2022/05/01 07:01:47;;;;;;;20.13;5.18;;;26.30;22.40;;;;;;5038021;28;20084;-67
2022/05/01 07:04:14;;;;;;;21.85;5.03;;;26.30;22.40;;;;;;5039094;28;20500;-69
2022/05/01 07:06:45;;;;;;;23.77;4.63;;;26.30;22.40;;;;;;5035597;28;20084;-65
2022/05/01 07:09:11;;;;;;;13.38;4.95;;;26.20;22.40;;;;;;5070227;28;20063;-67
2022/05/01 07:11:37;;;;;;;25.73;5.03;;;26.20;22.50;;;;;;5037283;28;20172;-65
2022/05/01 07:14:04;;;;;;;19.85;4.75;;;26.10;22.60;;;;;;5050420;28;20473;-66
2022/05/01 07:16:30;;;;;;;16.88;3.88;;;26.10;22.50;;;;;;5055866;28;20111;-67
2022/05/01 07:18:57;;;;;;;18.05;4.68;;;26.10;22.60;;;;;;5070238;28;20095;-65
2022/05/01 07:21:23;;;;;;;18.85;4.18;;;26.00;22.30;;;;;;5057732;28;20100;-67
2022/05/01 07:23:49;;;;;;;13.90;4.32;;;26.00;22.20;;;;;;5058494;28;20125;-67
2022/05/01 07:26:18;;;;;;;15.27;4.13;;;26.00;22.10;;;;;;5058990;28;20106;-66
2022/05/01 07:28:44;;;;;;;21.83;4.57;;;25.90;22.00;;;;;;5075095;28;20059;-66
2022/05/01 07:31:11;;;;;;;21.00;4.65;;;26.00;21.90;;;;;;5077404;28;20444;-66
2022/05/01 07:33:38;;;;;;;18.13;5.10;;;25.90;21.80;;;;;;5060065;28;20537;-66
2022/05/01 07:36:04;;;;;;;21.25;4.35;;;25.90;21.80;;;;;;5076984;28;20457;-66
2022/05/01 07:38:31;;;;;;;15.13;4.50;;;25.90;22.30;;;;;;5058997;28;20080;-67
2022/05/01 07:40:57;;;;;;;23.83;4.75;;;25.90;22.00;;;;;;5059017;28;20088;-65
2022/05/01 07:43:24;;;;;;;13.18;5.05;;;25.80;22.00;;;;;;5058107;28;20074;-65
2022/05/01 07:45:50;;;;;;;15.77;5.57;;;25.70;21.80;;;;;;5079346;28;20087;-69
2022/05/01 07:48:17;;;;;;;16.85;5.05;;;25.70;21.70;;;;;;5057439;28;20122;-68
2022/05/01 07:50:43;;;;;;;17.85;5.53;;;25.70;21.40;;;;;;5074573;28;20120;-69
2022/05/01 07:53:10;;;;;;;19.63;4.82;;;25.70;21.20;;;;;;5059237;28;20147;-65
2022/05/01 07:55:36;;;;;;;18.45;4.20;;;25.60;21.20;;;;;;5059862;28;20066;-66
2022/05/01 07:58:02;;;;;;;18.45;4.30;;;25.60;21.30;;;;;;5056241;28;20076;-67
2022/05/01 08:00:29;;;;;;;10.45;4.25;;;25.50;21.30;;;;;;5058044;28;20091;-69
2022/05/01 08:05:41;;;;;;;13.32;4.18;;;25.40;21.10;;;;;;5077643;28;20077;-66
2022/05/01 08:08:07;;;;;;;18.00;4.43;;;25.40;20.40;;;;;;5073773;28;20560;-66
2022/05/01 08:10:34;;;;;;;15.05;3.83;;;25.40;19.90;;;;;;5062547;28;20074;-69
2022/05/01 08:13:00;;;;;;;14.40;4.00;;;25.50;19.90;;;;;;5059856;28;20631;-65
2022/05/01 08:15:27;;;;;;;16.00;3.95;;;25.50;19.90;;;;;;5077673;28;20070;-65
2022/05/01 08:17:53;;;;;;;20.50;3.90;;;25.50;20.00;;;;;;5076324;28;20136;-69
2022/05/01 08:23:09;;;;;;;18.10;3.97;;;25.40;20.20;;;;;;5076284;28;20097;-66
2022/05/01 08:25:37;;;;;;;15.90;3.75;;;25.40;20.10;;;;;;5064303;28;20075;-69
2022/05/01 08:28:06;;;;;;;15.20;4.40;;;25.30;20.10;;;;;;5040735;28;20582;-65
2022/05/01 08:30:32;;;;;;;12.18;4.45;;;25.30;20.10;;;;;;5055130;28;20601;-68
2022/05/01 08:32:59;;;;;;;20.40;5.43;;;25.20;20.00;;;;;;5063417;28;20440;-66
2022/05/01 08:35:25;;;;;;;14.00;4.28;;;25.20;20.00;;;;;;5056401;28;20449;-65
2022/05/01 08:37:52;;;;;;;15.32;4.70;;;25.10;20.10;;;;;;5056014;28;20103;-66
2022/05/01 08:40:18;;;;;;;14.63;3.97;;;25.10;20.40;;;;;;5057222;28;20075;-66
2022/05/01 08:42:47;;;;;;;23.38;4.97;;;24.90;20.60;;;;;;5076542;28;20128;-66
2022/05/01 08:45:16;;;;;;;15.35;4.20;;;24.90;20.80;;;;;;5057071;28;20610;-66
2022/05/01 08:48:04;;;;;;;14.95;4.65;;;24.80;20.80;;;;;;5055650;28;20645;-68
2022/05/01 08:50:34;;;;;;;17.10;4.00;;;24.80;21.00;;;;;;5073080;28;20076;-66
2022/05/01 08:53:02;;;;;;;18.67;4.80;;;24.70;21.30;;;;;;5056770;28;20111;-65
2022/05/01 08:55:30;;;;;;;15.85;4.45;;;24.50;21.50;;;;;;5057547;28;20078;-65
2022/05/01 08:57:59;;;;;;;15.38;4.00;;;24.40;21.80;;;;;;5057572;28;20484;-66
2022/05/01 09:00:27;;;;;;;19.95;3.92;;;24.30;21.80;;;;;;5056250;28;20127;-66
2022/05/01 09:02:53;;;;;;;18.35;4.22;;;24.30;22.20;;;;;;5053943;28;20118;-66
2022/05/01 09:05:20;;;;;;;14.32;3.67;;;24.20;22.50;;;;;;5059137;28;20067;-68
2022/05/01 09:07:46;;;;;;;15.63;3.63;;;24.10;22.40;;;;;;5055983;28;20190;-66
2022/05/01 09:10:14;;;;;;;11.38;3.15;;;24.10;22.70;;;;;;5058273;28;20072;-66
2022/05/01 09:12:50;;;;;;;10.65;3.70;;;24.00;22.90;;;;;;5056727;28;20072;-67
2022/05/01 09:15:40;;;;;;;18.20;4.27;;;23.90;23.00;;;;;;5039063;28;20479;-68
2022/05/01 09:18:11;;;;;;;17.00;3.97;;;23.80;23.30;;;;;;5072327;28;20069;-68
2022/05/01 09:21:07;;;;;;;17.83;3.70;;;23.80;23.30;;;;;;5054642;28;20480;-64
2022/05/01 09:23:41;;;;;;;12.25;3.80;;;23.70;23.50;;;;;;5041897;28;20091;-65
2022/05/01 09:26:09;;;;;;;13.98;3.78;;;23.60;23.80;;;;;;5080153;28;20072;-64
2022/05/01 09:28:37;;;;;;;14.23;3.47;;;23.60;24.00;;;;;;5066675;28;20088;-68
2022/05/01 09:31:05;;;;;;;12.30;3.85;;;23.50;24.30;;;;;;5077600;28;20114;-67
2022/05/01 09:33:31;;;;;;;11.73;3.42;;;23.40;24.40;;;;;;5059223;28;20067;-65
2022/05/01 09:35:57;;;;;;;17.33;4.03;;;23.40;24.40;;;;;;5053883;28;20154;-65
2022/05/01 09:38:26;;;;;;;17.17;3.97;;;23.30;24.50;;;;;;5056183;28;20092;-66
2022/05/01 09:40:55;;;;;;;14.40;3.65;;;23.30;24.50;;;;;;5084856;28;20103;-65
2022/05/01 09:43:42;;;;;;;20.27;4.50;;;23.30;24.70;;;;;;5056445;28;20446;-65
2022/05/01 09:46:19;;;;;;;16.88;3.67;;;23.30;24.80;;;;;;5055688;28;20596;-68
2022/05/01 09:49:00;;;;;;;;;;;23.30;25.00;;;;;;5057164;28;20136;-64
2022/05/01 09:51:28;;;;;;;16.70;3.85;;;23.20;25.10;;;;;;5054221;28;19955;-68
2022/05/01 09:53:55;;;;;;;16.00;4.55;;;23.10;25.20;;;;;;5056899;28;20088;-65
2022/05/01 09:56:22;;;;;;;18.35;3.80;;;23.00;25.40;;;;;;5081433;28;20486;-66
2022/05/01 09:59:03;;;;;;;19.23;4.70;;;22.90;25.70;;;;;;5057374;28;20068;-67
2022/05/01 10:01:30;;;;;;;20.95;4.70;;;22.80;25.90;;;;;;5057981;28;20126;-68
2022/05/01 10:04:01;;;;;;;13.57;3.97;;;22.70;26.00;;;;;;5086075;28;20074;-66
2022/05/01 10:06:32;;;;;;;15.15;3.72;;;22.70;26.10;;;;;;5055690;28;20076;-66
2022/05/01 10:09:01;;;;;;;15.82;3.85;;;22.70;26.10;;;;;;5076940;28;20534;-66
2022/05/01 10:11:29;;;;;;;18.35;4.32;;;22.60;25.90;;;;;;5057728;28;20075;-65
2022/05/01 10:13:56;;;;;;;23.50;4.40;;;22.50;26.20;;;;;;5057290;28;20477;-66
2022/05/01 10:16:24;;;;;;;19.42;4.60;;;22.40;26.20;;;;;;5057370;28;20068;-67
2022/05/01 10:18:50;;;;;;;16.17;4.50;;;22.50;26.00;;;;;;5054617;28;20072;-65
2022/05/01 10:21:16;;;;;;;14.20;4.53;;;22.50;25.80;;;;;;5057758;28;20363;-66
2022/05/01 10:23:44;;;;;;;21.70;4.28;;;22.50;25.50;;;;;;5055832;28;20102;-65
2022/05/01 10:26:15;;;;;;;14.10;3.95;;;22.50;25.50;;;;;;5054866;28;20090;-66
2022/05/01 10:28:50;;;;;;;15.18;3.95;;;22.50;25.40;;;;;;5070566;28;20091;-66
2022/05/01 10:34:32;;;;;;;16.05;4.38;;;22.70;24.50;;;;;;5079950;28;20066;-68
2022/05/01 10:37:17;;;;;;;23.45;4.40;;;22.70;25.10;;;;;;5079411;28;20555;-68
2022/05/01 10:39:45;;;;;;;31.90;5.22;;;22.60;25.20;;;;;;5053562;28;20082;-66
2022/05/01 10:42:11;;;;;;;29.67;5.97;;;22.60;25.60;;;;;;5055256;28;20122;-64
2022/05/01 10:44:39;;;;;;;37.50;7.80;;;22.50;25.50;;;;;;5056816;28;20080;-66
2022/05/01 10:47:18;;;;;;;58.90;11.77;;;22.40;25.60;;;;;;5057202;28;20099;-65
2022/05/01 10:49:46;;;;;;;53.92;11.38;;;22.30;26.10;;;;;;5056695;28;20080;-66
2022/05/01 10:52:19;;;;;;;57.45;11.98;;;22.20;26.40;;;;;;5057561;28;20072;-70
2022/05/01 10:55:01;;;;;;;60.55;12.85;;;22.00;27.10;;;;;;5080235;28;20076;-66
2022/05/01 10:57:27;;;;;;;61.83;12.35;;;21.80;27.50;;;;;;5062162;28;20166;-67
2022/05/01 11:00:10;;;;;;;50.33;11.00;;;21.70;28.20;;;;;;5063785;28;20075;-64
2022/05/01 11:02:42;;;;;;;45.72;9.98;;;21.80;28.90;;;;;;5057300;28;20072;-68
2022/05/01 11:05:11;;;;;;;50.38;10.27;;;21.70;29.40;;;;;;5079727;28;20074;-67
2022/05/01 11:07:39;;;;;;;49.05;10.70;;;21.60;29.70;;;;;;5059284;28;20100;-66
2022/05/01 11:10:08;;;;;;;40.88;9.63;;;21.60;30.00;;;;;;5054595;28;20076;-65
2022/05/01 11:12:36;;;;;;;42.42;9.75;;;21.40;30.20;;;;;;5058372;28;20484;-68
2022/05/01 11:15:08;;;;;;;47.50;9.23;;;21.30;30.80;;;;;;5039018;28;20079;-65
2022/05/01 11:17:41;;;;;;;57.75;11.27;;;21.20;31.30;;;;;;5035602;28;20080;-68
2022/05/01 11:20:21;;;;;;;44.08;10.20;;;21.00;31.70;;;;;;5057055;28;20072;-64
2022/05/01 11:22:48;;;;;;;50.53;10.85;;;20.90;31.90;;;;;;5048652;28;20096;-65
2022/05/01 11:25:19;;;;;;;50.13;11.05;;;21.00;32.40;;;;;;5040529;28;20610;-66
2022/05/01 11:27:49;;;;;;;46.15;10.35;;;21.00;32.70;;;;;;5036877;28;20131;-68
2022/05/01 11:30:23;;;;;;;34.30;10.15;;;20.80;32.40;;;;;;5036873;28;20079;-65
2022/05/01 11:32:50;;;;;;;48.97;10.00;;;20.80;32.70;;;;;;5056380;28;20099;-68
2022/05/01 11:35:19;;;;;;;51.65;11.52;;;20.60;33.20;;;;;;5038471;28;20080;-65
2022/05/01 11:38:08;;;;;;;57.80;16.50;;;20.50;33.60;;;;;;5038444;28;20122;-67
2022/05/01 11:40:35;;;;;;;68.47;16.70;;;20.50;33.80;;;;;;5050810;28;20080;-63
2022/05/01 11:43:16;;;;;;;59.25;16.00;;;20.50;33.70;;;;;;5039350;28;20119;-67
2022/05/01 11:45:45;;;;;;;56.45;16.95;;;20.50;33.30;;;;;;5057290;28;20115;-68
2022/05/01 11:48:19;;;;;;;50.28;13.68;;;20.40;33.40;;;;;;5053307;28;20132;-68
2022/05/01 11:50:48;;;;;;;44.65;11.45;;;20.20;34.00;;;;;;5050984;28;20077;-68
2022/05/01 11:53:26;;;;;;;35.97;9.60;;;20.30;34.50;;;;;;5038826;28;20085;-66
2022/05/01 12:04:28;;;;;;;50.45;10.13;;;20.30;35.60;;;;;;5057172;28;20098;-68
2022/05/01 12:06:59;;;;;;;41.25;9.70;;;20.30;35.60;;;;;;5035159;28;20111;-66
2022/05/01 12:09:26;;;;;;;46.05;10.07;;;20.20;35.90;;;;;;5055921;28;20096;-67
2022/05/01 12:11:53;;;;;;;36.67;10.18;;;20.20;36.00;;;;;;5056665;28;20069;-67
2022/05/01 12:14:20;;;;;;;41.92;10.05;;;20.20;35.80;;;;;;5056058;28;20597;-67
2022/05/01 12:16:47;;;;;;;50.83;12.60;;;20.20;35.80;;;;;;5059062;28;20508;-64
2022/05/01 12:19:16;;;;;;;37.42;11.00;;;20.20;35.90;;;;;;5055722;28;20167;-66
2022/05/01 12:21:42;;;;;;;44.15;10.45;;;20.10;35.90;;;;;;5059582;28;20071;-65
2022/05/01 12:24:11;;;;;;;41.95;10.05;;;20.00;35.90;;;;;;5076541;28;20120;-65
2022/05/01 12:26:45;;;;;;;32.00;10.07;;;20.00;36.70;;;;;;5075922;28;20098;-67
2022/05/01 12:29:12;;;;;;;50.38;10.68;;;20.00;36.00;;;;;;5055335;28;20110;-65
2022/05/01 12:32:00;;;;;;;39.70;10.80;;;19.90;36.10;;;;;;5070812;28;20064;-65
2022/05/01 12:34:27;;;;;;;40.85;10.43;;;19.90;36.40;;;;;;5074717;28;20075;-65
2022/05/01 12:37:01;;;;;;;46.08;10.43;;;19.80;36.50;;;;;;5056103;28;20075;-65
2022/05/01 12:39:29;;;;;;;36.75;9.88;;;19.80;36.80;;;;;;5056519;28;20082;-68
2022/05/01 12:45:22;;;;;;;52.60;10.52;;;20.00;36.70;;;;;;5075688;28;20083;-66
2022/05/01 12:47:53;;;;;;;44.13;10.00;;;20.00;36.10;;;;;;5058097;28;20143;-65
2022/05/01 12:50:19;;;;;;;42.22;9.20;;;19.90;36.00;;;;;;5058021;28;20545;-65
2022/05/01 12:52:46;;;;;;;;;;;19.80;36.20;;;;;;5058905;28;20201;-65
2022/05/01 12:55:18;;;;;;;38.97;9.57;;;19.90;36.50;;;;;;5075967;28;20681;-67
2022/05/01 12:57:57;;;;;;;44.63;9.32;;;20.00;36.40;;;;;;5053812;28;20556;-67
2022/05/01 13:00:34;;;;;;;40.38;9.48;;;19.90;36.20;;;;;;5056468;28;20095;-68
2022/05/01 13:03:20;;;;;;;35.15;9.52;;;19.70;36.20;;;;;;5056875;28;20076;-67
2022/05/01 13:06:09;;;;;;;40.90;9.65;;;19.70;36.30;;;;;;5055161;28;20150;-63
2022/05/01 13:08:43;;;;;;;29.80;8.57;;;19.70;36.30;;;;;;5072180;28;20452;-66
2022/05/01 13:11:30;;;;;;;41.88;9.43;;;19.60;36.10;;;;;;5062968;28;20922;-67
2022/05/01 13:14:08;;;;;;;46.97;9.80;;;19.60;36.30;;;;;;5072318;28;20182;-68
2022/05/01 13:16:34;;;;;;;46.65;8.85;;;19.70;36.90;;;;;;5045513;28;20079;-65
2022/05/01 13:19:13;;;;;;;35.63;7.65;;;19.70;36.60;;;;;;5065952;28;20071;-67
2022/05/01 13:21:52;;;;;;;38.88;7.82;;;19.80;36.10;;;;;;5037035;28;20522;-68
2022/05/01 13:24:30;;;;;;;45.13;7.93;;;19.90;35.30;;;;;;5037548;28;20076;-66
2022/05/01 13:27:11;;;;;;;37.92;7.57;;;20.00;34.70;;;;;;5069229;28;20134;-64